createdAt,value
2023-03-01T00:04:22.069Z,1020.95
2023-03-01T00:09:29.287Z,1020.82
2023-03-01T00:14:36.458Z,1020.80
2023-03-01T00:19:43.639Z,1020.80
2023-03-01T00:24:50.845Z,1020.77
2023-03-01T00:29:58.001Z,1020.76
2023-03-01T00:35:05.194Z,1020.72
2023-03-01T00:40:12.670Z,1020.72
2023-03-01T00:45:52.620Z,1020.73
2023-03-01T00:50:50.918Z,1020.72
2023-03-01T00:56:07.618Z,1020.59
2023-03-01T01:01:35.301Z,1020.46
2023-03-01T01:11:53.596Z,1020.36
2023-03-01T01:17:09.538Z,1020.28
2023-03-01T01:22:21.451Z,1020.19
2023-03-01T01:27:28.071Z,1020.16
2023-03-01T01:32:35.269Z,1020.04
2023-03-01T01:37:42.459Z,1020.01
2023-03-01T01:42:49.673Z,1020.04
2023-03-01T01:47:56.846Z,1019.97
2023-03-01T01:53:04.000Z,1019.94
2023-03-01T01:58:11.220Z,1019.94
2023-03-01T02:03:18.475Z,1019.91
2023-03-01T02:08:25.559Z,1019.86
2023-03-01T02:13:32.813Z,1019.84
2023-03-01T02:18:40.040Z,1019.76
2023-03-01T02:23:47.239Z,1019.77
2023-03-01T02:28:54.470Z,1019.80
2023-03-01T02:34:02.001Z,1019.73
2023-03-01T02:39:09.263Z,1019.67
2023-03-01T02:44:16.521Z,1019.59
2023-03-01T02:49:23.854Z,1019.48
2023-03-01T02:54:31.309Z,1019.43
2023-03-01T02:59:38.970Z,1019.43
2023-03-01T03:05:26.154Z,1019.46
2023-03-01T03:10:33.561Z,1019.38
2023-03-01T03:16:16.327Z,1019.37
2023-03-01T03:21:32.631Z,1019.37
2023-03-01T03:26:40.435Z,1019.34
2023-03-01T03:31:50.920Z,1019.34
2023-03-01T03:36:58.406Z,1019.35
2023-03-01T03:42:08.283Z,1019.37
2023-03-01T03:47:14.479Z,1019.35
2023-03-01T03:52:22.028Z,1019.31
2023-03-01T03:57:32.749Z,1019.35
2023-03-01T04:02:43.441Z,1019.37
2023-03-01T04:07:50.320Z,1019.35
2023-03-01T04:12:57.830Z,1019.34
2023-03-01T04:18:05.229Z,1019.40
2023-03-01T04:23:12.467Z,1019.39
2023-03-01T04:28:19.818Z,1019.41
2023-03-01T04:33:27.434Z,1019.41
2023-03-01T04:38:34.863Z,1019.31
2023-03-01T04:43:42.222Z,1019.35
2023-03-01T04:48:49.551Z,1019.33
2023-03-01T04:53:56.832Z,1019.31
2023-03-01T04:59:07.665Z,1019.28
2023-03-01T05:04:15.232Z,1019.21
2023-03-01T05:09:22.568Z,1019.16
2023-03-01T05:14:29.961Z,1019.10
2023-03-01T05:19:37.422Z,1019.09
2023-03-01T05:24:44.792Z,1019.07
2023-03-01T05:30:12.712Z,1019.07
2023-03-01T05:35:29.764Z,1019.02
2023-03-01T05:40:30.868Z,1018.98
2023-03-01T05:45:38.202Z,1018.96
2023-03-01T05:50:45.474Z,1018.90
2023-03-01T05:55:52.758Z,1018.86
2023-03-01T06:01:00.203Z,1018.88
2023-03-01T06:06:07.558Z,1018.83
2023-03-01T06:11:18.829Z,1018.89
2023-03-01T06:16:26.393Z,1018.87
2023-03-01T06:21:38.747Z,1018.88
2023-03-01T06:26:52.544Z,1018.91
2023-03-01T06:32:35.849Z,1018.86
2023-03-01T06:37:43.104Z,1018.85
2023-03-01T06:42:57.483Z,1018.86
2023-03-01T06:48:05.023Z,1018.89
2023-03-01T06:53:33.829Z,1018.86
2023-03-01T06:58:29.108Z,1018.87
2023-03-01T07:03:39.429Z,1018.85
2023-03-01T07:08:47.611Z,1018.86
2023-03-01T07:13:55.417Z,1018.86
2023-03-01T07:19:11.961Z,1018.87
2023-03-01T07:24:19.492Z,1018.91
2023-03-01T07:29:26.985Z,1018.89
2023-03-01T07:34:36.775Z,1018.87
2023-03-01T07:39:42.592Z,1018.81
2023-03-01T07:44:50.117Z,1018.82
2023-03-01T07:49:57.395Z,1018.76
2023-03-01T07:55:11.401Z,1018.73
2023-03-01T08:00:18.778Z,1018.68
2023-03-01T08:05:26.314Z,1018.68
2023-03-01T08:10:33.671Z,1018.65
2023-03-01T08:15:41.044Z,1018.68
2023-03-01T08:20:48.362Z,1018.68
2023-03-01T08:25:55.728Z,1018.69
2023-03-01T08:31:04.203Z,1018.69
2023-03-01T08:36:11.653Z,1018.62
2023-03-01T08:41:19.099Z,1018.58
2023-03-01T08:46:27.509Z,1018.57
2023-03-01T08:51:39.656Z,1018.60
2023-03-01T08:56:47.056Z,1018.59
2023-03-01T09:01:54.424Z,1018.52
2023-03-01T09:07:01.751Z,1018.48
2023-03-01T09:12:12.265Z,1018.46
2023-03-01T09:17:17.331Z,1018.43
2023-03-01T09:22:24.674Z,1018.37
2023-03-01T09:27:31.960Z,1018.29
2023-03-01T09:32:39.358Z,1018.22
2023-03-01T09:37:46.877Z,1018.18
2023-03-01T09:42:54.418Z,1018.16
2023-03-01T09:48:01.800Z,1018.12
2023-03-01T09:53:09.459Z,1018.11
2023-03-01T09:58:17.133Z,1018.06
2023-03-01T10:03:24.670Z,1018.05
2023-03-01T10:08:32.330Z,1018.09
2023-03-01T10:13:39.712Z,1018.03
2023-03-01T10:18:47.178Z,1018.03
2023-03-01T10:23:54.818Z,1017.98
2023-03-01T10:29:02.266Z,1017.95
2023-03-01T10:34:31.330Z,1017.80
2023-03-01T10:39:22.842Z,1017.79
2023-03-01T10:44:45.453Z,1017.76
2023-03-01T10:49:52.766Z,1017.73
2023-03-01T10:55:00.167Z,1017.75
2023-03-01T11:00:07.572Z,1017.69
2023-03-01T11:05:14.993Z,1017.68
2023-03-01T11:10:25.330Z,1017.70
2023-03-01T11:15:31.196Z,1017.60
2023-03-01T11:20:40.213Z,1017.50
2023-03-01T11:25:47.646Z,1017.50
2023-03-01T11:31:07.219Z,1017.51
2023-03-01T11:36:02.687Z,1017.38
2023-03-01T11:41:10.047Z,1017.28
2023-03-01T11:46:21.139Z,1017.23
2023-03-01T11:51:28.578Z,1017.17
2023-03-01T11:56:35.972Z,1017.10
2023-03-01T12:01:43.690Z,1017.06
2023-03-01T12:06:56.666Z,1017.20
2023-03-01T12:12:02.218Z,1017.01
2023-03-01T12:17:09.741Z,1017.02
2023-03-01T12:22:17.123Z,1016.91
2023-03-01T12:27:24.847Z,1016.92
2023-03-01T12:32:36.599Z,1016.81
2023-03-01T12:37:44.087Z,1016.75
2023-03-01T12:42:51.414Z,1016.62
2023-03-01T12:47:58.746Z,1016.66
2023-03-01T12:53:06.015Z,1016.70
2023-03-01T12:58:13.660Z,1016.73
2023-03-01T13:03:21.101Z,1016.61
2023-03-01T13:08:32.527Z,1016.66
2023-03-01T13:13:40.147Z,1016.63
2023-03-01T13:18:53.147Z,1016.65
2023-03-01T13:24:00.532Z,1016.69
2023-03-01T13:29:08.114Z,1016.70
2023-03-01T13:34:20.204Z,1016.78
2023-03-01T13:39:27.544Z,1016.68
2023-03-01T13:44:34.843Z,1016.68
2023-03-01T13:49:46.496Z,1016.42
2023-03-01T13:54:52.947Z,1016.54
2023-03-01T14:00:00.466Z,1016.48
2023-03-01T14:05:07.920Z,1016.47
2023-03-01T14:10:15.267Z,1016.37
2023-03-01T14:15:22.595Z,1016.38
2023-03-01T14:20:30.186Z,1016.37
2023-03-01T14:25:37.517Z,1016.36
2023-03-01T14:30:44.952Z,1016.38
2023-03-01T14:35:52.706Z,1016.34
2023-03-01T14:41:06.670Z,1016.32
2023-03-01T14:46:13.078Z,1016.36
2023-03-01T14:51:20.451Z,1016.31
2023-03-01T14:56:27.856Z,1016.41
2023-03-01T15:01:35.288Z,1016.33
2023-03-01T15:06:42.667Z,1016.30
2023-03-01T15:11:49.933Z,1016.32
2023-03-01T15:16:58.928Z,1016.30
2023-03-01T15:22:12.273Z,1016.31
2023-03-01T15:27:28.457Z,1016.35
2023-03-01T15:32:31.647Z,1016.37
2023-03-01T15:37:39.269Z,1016.42
2023-03-01T15:42:47.077Z,1016.40
2023-03-01T15:47:54.596Z,1016.37
2023-03-01T15:53:01.889Z,1016.37
2023-03-01T15:58:09.303Z,1016.41
2023-03-01T16:03:16.917Z,1016.46
2023-03-01T16:08:24.490Z,1016.42
2023-03-01T16:13:31.932Z,1016.40
2023-03-01T16:18:39.374Z,1016.46
2023-03-01T16:23:46.786Z,1016.44
2023-03-01T16:28:54.151Z,1016.48
2023-03-01T16:34:01.698Z,1016.46
2023-03-01T16:39:10.004Z,1016.57
2023-03-01T16:44:27.269Z,1016.66
2023-03-01T16:49:38.016Z,1016.67
2023-03-01T16:54:51.825Z,1016.64
2023-03-01T17:00:07.055Z,1016.68
2023-03-01T17:05:14.975Z,1016.67
2023-03-01T17:10:25.983Z,1016.78
2023-03-01T17:15:33.515Z,1016.79
2023-03-01T17:20:41.189Z,1016.87
2023-03-01T17:25:49.055Z,1016.80
2023-03-01T17:30:56.560Z,1016.87
2023-03-01T17:36:04.407Z,1016.84
2023-03-01T17:41:22.642Z,1016.78
2023-03-01T17:46:24.901Z,1016.98
2023-03-01T17:51:32.689Z,1017.03
2023-03-01T17:56:40.173Z,1017.04
2023-03-01T18:01:48.932Z,1017.10
2023-03-01T18:06:57.193Z,1017.05
2023-03-01T18:12:04.753Z,1017.03
2023-03-01T18:17:12.498Z,1017.02
2023-03-01T18:22:24.175Z,1017.09
2023-03-01T18:27:36.901Z,1017.17
2023-03-01T18:32:44.330Z,1017.09
2023-03-01T18:37:52.270Z,1017.04
2023-03-01T18:43:00.230Z,1016.95
2023-03-01T18:48:08.745Z,1016.90
2023-03-01T18:53:16.761Z,1016.79
2023-03-01T18:58:24.496Z,1016.79
2023-03-01T19:03:32.796Z,1016.82
2023-03-01T19:08:40.531Z,1016.76
2023-03-01T19:13:48.355Z,1016.73
2023-03-01T19:18:57.270Z,1016.71
2023-03-01T19:24:04.990Z,1016.62
2023-03-01T19:29:12.883Z,1016.60
2023-03-01T19:34:29.420Z,1016.58
2023-03-01T19:39:28.261Z,1016.51
2023-03-01T19:44:35.897Z,1016.52
2023-03-01T19:49:43.661Z,1016.43
2023-03-01T19:54:53.816Z,1016.41
2023-03-01T20:00:00.170Z,1016.39
2023-03-01T20:05:07.491Z,1016.42
2023-03-01T20:10:15.333Z,1016.37
2023-03-01T20:15:22.871Z,1016.33
2023-03-01T20:20:30.502Z,1016.29
2023-03-01T20:25:38.079Z,1016.25
2023-03-01T20:30:45.745Z,1016.16
2023-03-01T20:35:55.082Z,1016.17
2023-03-01T20:41:00.942Z,1016.22
2023-03-01T20:46:09.074Z,1016.19
2023-03-01T20:51:16.462Z,1016.09
2023-03-01T20:56:24.086Z,1016.09
2023-03-01T21:01:31.630Z,1016.09
2023-03-01T21:06:38.846Z,1016.00
2023-03-01T21:11:46.113Z,1015.91
2023-03-01T21:16:53.558Z,1015.92
2023-03-01T21:22:00.666Z,1015.90
2023-03-01T21:27:07.912Z,1015.85
2023-03-01T21:32:15.346Z,1015.76
2023-03-01T21:37:22.267Z,1015.75
2023-03-01T21:42:29.544Z,1015.70
2023-03-01T21:47:36.772Z,1015.70
2023-03-01T21:52:43.926Z,1015.68
2023-03-01T21:57:51.086Z,1015.61
2023-03-01T22:02:58.400Z,1015.56
2023-03-01T22:08:05.519Z,1015.47
2023-03-01T22:13:12.857Z,1015.39
2023-03-01T22:18:20.065Z,1015.37
2023-03-01T22:23:27.217Z,1015.42
2023-03-01T22:28:34.429Z,1015.39
2023-03-01T22:33:41.746Z,1015.42
2023-03-01T22:38:49.109Z,1015.36
2023-03-01T22:43:56.296Z,1015.34
2023-03-01T22:49:03.503Z,1015.30
2023-03-01T22:54:10.654Z,1015.36
2023-03-01T22:59:17.948Z,1015.37
2023-03-01T23:04:25.168Z,1015.34
2023-03-01T23:09:32.368Z,1015.33
2023-03-01T23:14:39.654Z,1015.25
2023-03-01T23:19:46.904Z,1015.23
2023-03-01T23:24:54.051Z,1015.23
2023-03-01T23:30:01.249Z,1015.14
2023-03-01T23:35:08.476Z,1015.16
2023-03-01T23:40:15.629Z,1015.13
2023-03-01T23:45:22.901Z,1015.06
2023-03-01T23:50:30.121Z,1015.02
2023-03-01T23:55:37.288Z,1014.99
